createdAt,value
2023-06-13T00:00:34.147Z,29.58
2023-06-13T00:03:04.575Z,28.58
2023-06-13T00:05:35.464Z,28.65
2023-06-13T00:08:05.891Z,32.47
2023-06-13T00:10:36.257Z,34.03
2023-06-13T00:13:06.276Z,32.25
2023-06-13T00:15:38.138Z,30.20
2023-06-13T00:18:08.216Z,29.70
2023-06-13T00:20:39.450Z,36.78
2023-06-13T00:23:11.161Z,40.17
2023-06-13T00:25:41.748Z,37.05
2023-06-13T00:28:12.398Z,30.17
2023-06-13T00:30:45.657Z,36.35
2023-06-13T00:33:19.486Z,34.95
2023-06-13T00:35:50.013Z,41.15
2023-06-13T00:38:23.405Z,39.83
2023-06-13T00:40:54.342Z,46.78
2023-06-13T00:43:25.471Z,37.92
2023-06-13T00:45:57.397Z,35.03
2023-06-13T00:48:27.491Z,32.75
2023-06-13T00:50:59.756Z,44.40
2023-06-13T00:53:32.116Z,40.17
2023-06-13T00:56:09.298Z,51.47
2023-06-13T00:58:39.965Z,49.75
2023-06-13T01:01:12.225Z,54.17
2023-06-13T01:03:47.768Z,42.30
2023-06-13T01:06:19.054Z,38.92
2023-06-13T01:08:50.147Z,31.63
2023-06-13T01:11:33.802Z,25.35
2023-06-13T01:14:16.685Z,33.53
2023-06-13T01:16:51.693Z,32.35
2023-06-13T01:19:45.659Z,43.25
2023-06-13T01:22:23.403Z,28.70
2023-06-13T01:25:13.885Z,22.48
2023-06-13T01:27:51.648Z,19.30
2023-06-13T01:30:22.487Z,19.13
2023-06-13T01:32:54.770Z,19.25
2023-06-13T01:35:27.343Z,17.48
2023-06-13T01:37:58.137Z,18.50
2023-06-13T01:40:28.083Z,18.92
2023-06-13T01:42:57.995Z,14.95
2023-06-13T01:45:28.942Z,19.08
2023-06-13T01:48:31.874Z,16.38
2023-06-13T01:51:13.278Z,23.25
2023-06-13T01:53:51.946Z,23.40
2023-06-13T01:56:30.168Z,30.52
2023-06-13T01:59:06.598Z,31.52
2023-06-13T02:01:44.314Z,27.45
2023-06-13T02:04:14.566Z,23.02
2023-06-13T02:06:44.964Z,21.80
2023-06-13T02:09:16.560Z,29.92
2023-06-13T02:11:47.879Z,28.92
2023-06-13T02:14:17.950Z,24.20
2023-06-13T02:16:48.501Z,34.35
2023-06-13T02:19:18.613Z,28.85
2023-06-13T02:21:49.762Z,21.35
2023-06-13T02:24:21.295Z,28.70
2023-06-13T02:26:53.155Z,26.85
2023-06-13T02:29:23.158Z,22.83
2023-06-13T02:31:53.815Z,21.10
2023-06-13T02:34:24.038Z,24.65
2023-06-13T02:36:57.319Z,28.92
2023-06-13T02:39:27.348Z,28.50
2023-06-13T02:41:57.318Z,35.17
2023-06-13T02:44:27.734Z,34.67
2023-06-13T02:46:58.748Z,40.55
2023-06-13T02:49:29.168Z,34.40
2023-06-13T02:51:59.198Z,30.50
2023-06-13T02:54:29.684Z,29.65
2023-06-13T02:56:59.768Z,28.02
2023-06-13T02:59:30.404Z,24.67
2023-06-13T03:02:00.898Z,28.25
2023-06-13T03:04:31.563Z,30.05
2023-06-13T03:07:02.753Z,26.80
2023-06-13T03:09:33.517Z,27.40
2023-06-13T03:12:05.199Z,27.48
2023-06-13T03:14:37.728Z,27.85
2023-06-13T03:17:08.974Z,24.00
2023-06-13T03:19:40.152Z,24.27
2023-06-13T03:22:15.840Z,27.23
2023-06-13T03:24:48.050Z,28.98
2023-06-13T03:27:19.044Z,24.50
2023-06-13T03:29:49.941Z,24.63
2023-06-13T03:32:20.209Z,29.05
2023-06-13T03:34:52.132Z,23.75
2023-06-13T03:37:22.399Z,35.63
2023-06-13T03:39:52.882Z,26.73
2023-06-13T03:42:23.019Z,45.67
2023-06-13T03:44:54.132Z,70.60
2023-06-13T03:47:24.427Z,117.05
2023-06-13T03:49:55.756Z,64.10
2023-06-13T03:52:26.634Z,43.80
2023-06-13T03:54:57.202Z,169.18
2023-06-13T03:57:27.319Z,255.45
2023-06-13T03:59:58.064Z,168.48
2023-06-13T04:02:29.225Z,186.18
2023-06-13T04:04:59.854Z,23.38
2023-06-13T04:07:36.027Z,25.27
2023-06-13T04:10:08.920Z,30.60
2023-06-13T04:12:39.420Z,30.42
2023-06-13T04:15:10.466Z,42.38
2023-06-13T04:17:40.776Z,32.88
2023-06-13T04:20:13.273Z,33.10
2023-06-13T04:22:44.607Z,33.33
2023-06-13T04:25:15.388Z,31.08
2023-06-13T04:27:47.273Z,36.85
2023-06-13T04:30:19.077Z,38.10
2023-06-13T04:32:51.604Z,35.55
2023-06-13T04:35:24.639Z,31.33
2023-06-13T04:37:55.429Z,29.45
2023-06-13T04:40:33.830Z,27.23
2023-06-13T04:43:06.348Z,29.70
2023-06-13T04:45:38.436Z,28.58
2023-06-13T04:48:11.945Z,30.00
2023-06-13T04:50:46.622Z,33.00
2023-06-13T04:53:18.536Z,143.63
2023-06-13T04:55:50.471Z,60.13
2023-06-13T04:58:20.777Z,48.72
2023-06-13T05:00:51.423Z,44.28
2023-06-13T05:03:22.540Z,26.98
2023-06-13T05:05:53.459Z,25.33
2023-06-13T05:08:23.949Z,24.20
2023-06-13T05:10:55.768Z,22.42
2023-06-13T05:13:25.938Z,22.70
2023-06-13T05:15:57.492Z,23.65
2023-06-13T05:18:31.862Z,24.13
2023-06-13T05:21:02.752Z,24.65
2023-06-13T05:23:33.977Z,25.02
2023-06-13T05:26:04.766Z,32.42
2023-06-13T05:28:35.116Z,23.15
2023-06-13T05:31:05.909Z,34.85
2023-06-13T05:33:36.226Z,40.13
2023-06-13T05:36:07.337Z,19.98
2023-06-13T05:38:38.884Z,19.85
2023-06-13T05:41:09.578Z,21.83
2023-06-13T05:43:39.857Z,56.13
2023-06-13T05:46:11.805Z,19.30
2023-06-13T05:48:42.323Z,74.35
2023-06-13T05:51:13.151Z,22.67
2023-06-13T05:53:43.401Z,42.97
2023-06-13T05:56:14.237Z,23.77
2023-06-13T05:58:44.488Z,20.70
2023-06-13T06:01:15.174Z,18.67
2023-06-13T06:03:45.411Z,21.50
2023-06-13T06:06:16.627Z,64.35
2023-06-13T06:08:46.884Z,139.88
2023-06-13T06:11:17.969Z,200.35
2023-06-13T06:13:48.218Z,30.95
2023-06-13T06:16:19.019Z,80.20
2023-06-13T06:18:49.448Z,135.95
2023-06-13T06:21:20.232Z,94.43
2023-06-13T06:23:50.552Z,172.45
2023-06-13T06:26:23.338Z,126.07
2023-06-13T06:28:54.121Z,31.58
2023-06-13T06:31:26.616Z,88.97
2023-06-13T06:33:57.222Z,104.63
2023-06-13T06:36:27.954Z,23.35
2023-06-13T06:38:58.194Z,46.25
2023-06-13T06:41:29.297Z,57.30
2023-06-13T06:43:59.615Z,21.20
2023-06-13T06:46:32.703Z,123.80
2023-06-13T06:49:03.970Z,21.52
2023-06-13T06:51:34.983Z,74.38
2023-06-13T06:54:05.374Z,74.10
2023-06-13T06:56:36.167Z,38.97
2023-06-13T06:59:06.422Z,57.28
2023-06-13T07:01:37.707Z,75.47
2023-06-13T07:04:08.451Z,84.88
2023-06-13T07:06:39.616Z,87.80
2023-06-13T07:09:09.790Z,74.65
2023-06-13T07:11:40.480Z,112.40
2023-06-13T07:14:10.667Z,177.57
2023-06-13T07:16:41.525Z,117.00
2023-06-13T07:19:12.566Z,105.05
2023-06-13T07:21:43.197Z,89.15
2023-06-13T07:24:13.602Z,36.75
2023-06-13T07:26:44.295Z,68.40
2023-06-13T07:29:14.686Z,128.40
2023-06-13T07:31:45.583Z,62.65
2023-06-13T07:34:34.482Z,30.17
2023-06-13T07:37:06.810Z,17.65
2023-06-13T07:39:37.031Z,20.88
2023-06-13T07:42:11.726Z,120.15
2023-06-13T07:44:43.642Z,104.20
2023-06-13T07:47:14.366Z,116.07
2023-06-13T07:49:44.595Z,121.63
2023-06-13T07:52:15.253Z,105.68
2023-06-13T07:54:46.111Z,87.65
2023-06-13T07:57:33.747Z,119.28
2023-06-13T08:00:20.333Z,36.42
2023-06-13T08:02:51.152Z,21.67
2023-06-13T08:05:21.488Z,102.28
2023-06-13T08:07:53.321Z,97.95
2023-06-13T08:10:23.874Z,89.50
2023-06-13T08:12:55.696Z,125.47
2023-06-13T08:15:26.165Z,110.75
2023-06-13T08:17:59.727Z,190.43
2023-06-13T08:20:30.080Z,146.30
2023-06-13T08:23:02.092Z,164.65
2023-06-13T08:25:32.576Z,177.40
2023-06-13T08:28:03.301Z,165.82
2023-06-13T08:30:33.631Z,109.45
2023-06-13T08:33:04.857Z,42.83
2023-06-13T08:35:38.837Z,54.03
2023-06-13T08:40:40.076Z,50.47
2023-06-13T08:43:10.906Z,15.00
2023-06-13T08:45:41.385Z,18.98
2023-06-13T08:48:12.504Z,32.20
2023-06-13T08:50:42.813Z,26.95
2023-06-13T08:53:15.676Z,27.92
2023-06-13T08:58:22.769Z,113.65
2023-06-13T09:00:54.346Z,118.03
2023-06-13T09:03:27.571Z,231.02
2023-06-13T09:05:59.286Z,33.72
2023-06-13T09:08:32.129Z,20.83
2023-06-13T09:11:02.766Z,18.67
2023-06-13T09:13:34.541Z,24.33
2023-06-13T09:16:05.057Z,20.35
2023-06-13T09:18:41.388Z,20.27
2023-06-13T09:21:13.004Z,19.35
2023-06-13T09:23:43.839Z,19.17
2023-06-13T09:26:14.632Z,14.65
2023-06-13T09:28:49.736Z,21.88
2023-06-13T09:31:20.660Z,21.77
2023-06-13T09:33:51.583Z,20.00
2023-06-13T09:36:22.146Z,20.15
2023-06-13T09:38:53.397Z,17.77
2023-06-13T09:41:24.254Z,15.55
2023-06-13T09:43:55.481Z,14.93
2023-06-13T09:46:27.006Z,15.98
2023-06-13T09:48:58.331Z,13.13
2023-06-13T09:51:31.788Z,15.32
2023-06-13T09:54:05.307Z,14.50
2023-06-13T09:56:35.918Z,13.93
2023-06-13T09:59:06.733Z,12.18
2023-06-13T10:01:37.313Z,16.00
2023-06-13T10:04:08.272Z,153.50
2023-06-13T10:06:38.945Z,151.48
2023-06-13T10:09:09.815Z,95.05
2023-06-13T10:11:43.459Z,160.98
2023-06-13T10:14:20.347Z,135.48
2023-06-13T10:17:07.496Z,91.43
2023-06-13T10:19:42.128Z,131.95
2023-06-13T10:22:17.189Z,121.25
2023-06-13T10:24:52.392Z,97.55
2023-06-13T10:27:24.802Z,93.80
2023-06-13T10:30:33.907Z,70.53
2023-06-13T10:33:25.011Z,88.47
2023-06-13T10:35:56.144Z,95.75
2023-06-13T10:38:57.213Z,103.20
2023-06-13T10:41:43.192Z,82.43
2023-06-13T10:44:38.621Z,68.97
2023-06-13T10:47:12.501Z,21.67
2023-06-13T10:49:45.604Z,27.45
2023-06-13T10:52:16.539Z,248.73
2023-06-13T10:54:55.162Z,67.68
2023-06-13T10:57:25.934Z,27.20
2023-06-13T10:59:57.976Z,43.65
2023-06-13T11:02:28.596Z,20.90
2023-06-13T11:05:03.694Z,23.42
2023-06-13T11:07:36.389Z,223.57
2023-06-13T11:10:11.161Z,309.70
2023-06-13T11:12:44.019Z,268.90
2023-06-13T11:15:28.757Z,194.50
2023-06-13T11:18:11.588Z,146.90
2023-06-13T11:20:52.112Z,18.45
2023-06-13T11:23:27.302Z,17.48
2023-06-13T11:25:57.742Z,14.98
2023-06-13T11:28:28.573Z,27.52
2023-06-13T11:31:03.465Z,71.20
2023-06-13T11:33:39.001Z,81.13
2023-06-13T11:36:09.774Z,26.20
2023-06-13T11:38:45.137Z,29.08
2023-06-13T11:41:15.429Z,34.15
2023-06-13T11:43:47.206Z,23.60
2023-06-13T11:46:17.663Z,23.25
2023-06-13T11:48:51.605Z,170.25
2023-06-13T11:51:22.720Z,404.35
2023-06-13T11:53:57.900Z,181.13
2023-06-13T11:56:30.275Z,87.45
2023-06-13T11:59:01.260Z,188.10
2023-06-13T12:01:32.077Z,69.55
2023-06-13T12:04:04.977Z,296.45
2023-06-13T12:06:35.312Z,180.10
2023-06-13T12:09:08.621Z,142.25
2023-06-13T12:11:39.301Z,226.45
2023-06-13T12:14:10.168Z,286.63
2023-06-13T12:16:41.529Z,318.35
2023-06-13T12:19:12.361Z,195.55
2023-06-13T12:21:43.480Z,245.05
2023-06-13T12:24:15.188Z,290.25
2023-06-13T12:26:46.417Z,278.85
2023-06-13T12:29:19.481Z,286.05
2023-06-13T12:31:50.361Z,325.77
2023-06-13T12:34:31.861Z,266.00
2023-06-13T12:37:07.090Z,120.70
2023-06-13T12:39:38.070Z,171.13
2023-06-13T12:42:12.974Z,51.58
2023-06-13T12:44:43.682Z,28.90
2023-06-13T12:47:14.090Z,45.13
2023-06-13T12:49:44.874Z,45.05
2023-06-13T12:52:19.043Z,14.88
2023-06-13T12:54:49.773Z,11.77
2023-06-13T12:57:21.738Z,12.70
2023-06-13T12:59:56.083Z,11.13
2023-06-13T13:02:27.239Z,13.50
2023-06-13T13:05:02.662Z,13.35
2023-06-13T13:07:33.546Z,14.07
2023-06-13T13:10:04.208Z,13.05
2023-06-13T13:12:34.512Z,10.40
2023-06-13T13:15:05.255Z,9.10
2023-06-13T13:17:35.466Z,10.00
2023-06-13T13:20:07.139Z,8.88
2023-06-13T13:22:37.920Z,14.35
2023-06-13T13:25:08.905Z,12.10
2023-06-13T13:27:39.122Z,14.73
2023-06-13T13:30:10.464Z,12.30
2023-06-13T13:32:40.798Z,13.95
2023-06-13T13:35:11.633Z,11.63
2023-06-13T13:37:41.819Z,11.50
2023-06-13T13:40:12.916Z,11.02
2023-06-13T13:42:43.111Z,9.30
2023-06-13T13:45:14.749Z,8.50
2023-06-13T13:47:45.396Z,8.07
2023-06-13T13:50:17.857Z,9.38
2023-06-13T13:52:48.178Z,9.77
2023-06-13T13:55:19.127Z,10.35
2023-06-13T13:57:49.358Z,10.52
2023-06-13T14:00:20.444Z,10.30
2023-06-13T14:02:51.365Z,10.90
2023-06-13T14:05:22.877Z,11.90
2023-06-13T14:07:54.123Z,10.60
2023-06-13T14:10:25.302Z,12.23
2023-06-13T14:12:55.748Z,12.20
2023-06-13T14:15:26.419Z,13.20
2023-06-13T14:17:57.598Z,12.20
2023-06-13T14:20:28.287Z,11.02
2023-06-13T14:22:58.790Z,11.95
2023-06-13T14:25:29.518Z,12.80
2023-06-13T14:27:59.753Z,13.05
2023-06-13T14:30:30.633Z,14.82
2023-06-13T14:33:00.823Z,11.35
2023-06-13T14:35:31.604Z,11.38
2023-06-13T14:38:01.788Z,12.25
2023-06-13T14:40:33.653Z,15.18
2023-06-13T14:43:04.662Z,15.13
2023-06-13T14:45:35.243Z,12.57
2023-06-13T14:48:05.959Z,15.63
2023-06-13T14:50:36.907Z,14.10
2023-06-13T14:53:07.185Z,12.55
2023-06-13T14:55:39.252Z,13.85
2023-06-13T14:58:09.634Z,11.07
2023-06-13T15:00:40.335Z,10.35
2023-06-13T15:03:10.639Z,10.43
2023-06-13T15:05:41.660Z,11.43
2023-06-13T15:08:11.922Z,9.20
2023-06-13T15:10:42.603Z,12.80
2023-06-13T15:13:13.329Z,11.13
2023-06-13T15:15:54.381Z,12.98
2023-06-13T15:18:25.328Z,12.30
2023-06-13T15:20:56.384Z,12.13
2023-06-13T15:23:26.796Z,12.32
2023-06-13T15:25:57.919Z,10.13
2023-06-13T15:28:29.270Z,13.77
2023-06-13T15:31:02.128Z,12.43
2023-06-13T15:33:38.393Z,10.77
2023-06-13T15:36:10.245Z,11.25
2023-06-13T15:38:41.758Z,12.10
2023-06-13T15:41:13.463Z,11.93
2023-06-13T15:43:44.417Z,12.18
2023-06-13T15:46:15.550Z,12.27
2023-06-13T15:48:45.919Z,10.60
2023-06-13T15:51:17.126Z,12.77
2023-06-13T15:53:48.513Z,14.40
2023-06-13T15:56:19.413Z,11.57
2023-06-13T15:58:50.022Z,13.30
2023-06-13T16:01:20.757Z,11.65
2023-06-13T16:03:51.528Z,13.50
2023-06-13T16:06:22.674Z,10.95
2023-06-13T16:08:55.355Z,15.07
2023-06-13T16:11:26.638Z,12.15
2023-06-13T16:14:00.137Z,13.60
2023-06-13T16:16:31.041Z,14.02
2023-06-13T16:19:01.559Z,12.63
2023-06-13T16:21:32.690Z,12.98
2023-06-13T16:24:03.056Z,10.38
2023-06-13T16:26:34.451Z,12.07
2023-06-13T16:29:05.688Z,12.88
2023-06-13T16:31:38.697Z,10.00
2023-06-13T16:36:40.667Z,10.70
2023-06-13T16:39:11.814Z,10.43
2023-06-13T16:41:43.076Z,10.77
2023-06-13T16:44:13.476Z,10.05
2023-06-13T16:46:44.849Z,10.70
2023-06-13T16:49:16.272Z,10.27
2023-06-13T16:51:47.954Z,9.80
2023-06-13T16:54:19.094Z,8.80
2023-06-13T16:56:50.288Z,9.80
2023-06-13T16:59:20.959Z,10.95
2023-06-13T17:01:52.245Z,8.73
2023-06-13T17:04:23.141Z,11.18
2023-06-13T17:06:55.203Z,10.18
2023-06-13T17:09:27.659Z,11.10
2023-06-13T17:11:59.257Z,9.25
2023-06-13T17:14:29.916Z,12.43
2023-06-13T17:17:04.165Z,9.88
2023-06-13T17:19:35.715Z,10.27
2023-06-13T17:22:07.464Z,9.55
2023-06-13T17:24:38.421Z,10.15
2023-06-13T17:27:09.523Z,9.27
2023-06-13T17:29:39.908Z,9.43
2023-06-13T17:32:12.133Z,7.63
2023-06-13T17:34:43.338Z,10.68
2023-06-13T17:37:14.644Z,7.10
2023-06-13T17:39:45.071Z,7.30
2023-06-13T17:42:16.239Z,8.32
2023-06-13T17:44:46.854Z,9.30
2023-06-13T17:47:17.641Z,12.15
2023-06-13T17:49:47.742Z,7.38
2023-06-13T17:52:18.364Z,7.57
2023-06-13T17:54:49.377Z,6.50
2023-06-13T17:57:20.334Z,7.55
2023-06-13T17:59:50.510Z,7.93
2023-06-13T18:02:21.197Z,9.13
2023-06-13T18:04:51.569Z,9.85
2023-06-13T18:07:22.568Z,10.80
2023-06-13T18:09:52.937Z,8.10
2023-06-13T18:12:23.648Z,7.78
2023-06-13T18:14:53.804Z,9.73
2023-06-13T18:17:24.982Z,8.85
2023-06-13T18:19:55.285Z,10.18
2023-06-13T18:22:26.366Z,9.10
2023-06-13T18:24:56.669Z,11.73
2023-06-13T18:27:27.453Z,9.90
2023-06-13T18:29:57.979Z,9.63
2023-06-13T18:32:29.683Z,9.00
2023-06-13T18:35:00.432Z,9.63
2023-06-13T18:37:31.093Z,11.23
2023-06-13T18:40:01.253Z,7.28
2023-06-13T18:42:32.270Z,10.02
2023-06-13T18:45:02.428Z,9.88
2023-06-13T18:47:33.422Z,9.85
2023-06-13T18:50:04.472Z,9.82
2023-06-13T18:52:35.213Z,9.57
2023-06-13T18:55:06.063Z,8.27
2023-06-13T18:57:36.700Z,11.15
2023-06-13T19:00:08.827Z,11.77
2023-06-13T19:02:39.871Z,13.23
2023-06-13T19:05:10.517Z,10.25
2023-06-13T19:07:41.330Z,12.35
2023-06-13T19:10:11.832Z,13.50
2023-06-13T19:12:44.923Z,10.85
2023-06-13T19:17:47.044Z,12.18
2023-06-13T19:20:17.509Z,10.98
2023-06-13T19:22:49.424Z,12.02
2023-06-13T19:25:21.042Z,12.60
2023-06-13T19:27:53.101Z,10.40
2023-06-13T19:30:26.701Z,11.65
2023-06-13T19:33:00.311Z,9.82
2023-06-13T19:35:32.086Z,10.93
2023-06-13T19:38:04.324Z,13.30
2023-06-13T19:40:34.761Z,11.73
2023-06-13T19:43:05.618Z,9.63
2023-06-13T19:45:35.877Z,11.68
2023-06-13T19:48:12.881Z,9.23
2023-06-13T19:50:43.350Z,10.02
2023-06-13T19:53:14.239Z,10.10
2023-06-13T19:55:44.728Z,12.02
2023-06-13T19:58:15.608Z,10.02
2023-06-13T20:00:46.575Z,13.18
2023-06-13T20:03:17.929Z,9.45
2023-06-13T20:05:49.183Z,10.48
2023-06-13T20:08:19.925Z,13.88
2023-06-13T20:10:50.590Z,11.15
2023-06-13T20:13:22.624Z,11.80
2023-06-13T20:15:54.584Z,13.40
2023-06-13T20:18:25.711Z,14.57
2023-06-13T20:20:55.833Z,12.27
2023-06-13T20:23:26.991Z,13.85
2023-06-13T20:25:57.622Z,13.73
2023-06-13T20:28:28.362Z,8.48
2023-06-13T20:30:58.503Z,14.32
2023-06-13T20:33:29.076Z,14.20
2023-06-13T20:36:00.182Z,16.60
2023-06-13T20:38:31.284Z,16.48
2023-06-13T20:41:01.540Z,13.85
2023-06-13T20:43:33.094Z,16.08
2023-06-13T20:46:03.329Z,16.38
2023-06-13T20:48:39.195Z,15.07
2023-06-13T20:51:09.740Z,20.63
2023-06-13T20:53:40.514Z,22.77
2023-06-13T20:56:10.800Z,20.30
2023-06-13T20:58:41.430Z,17.27
2023-06-13T21:01:13.494Z,17.55
2023-06-13T21:03:44.157Z,15.63
2023-06-13T21:06:14.361Z,15.23
2023-06-13T21:08:45.602Z,16.42
2023-06-13T21:11:15.955Z,14.57
2023-06-13T21:13:46.827Z,13.13
2023-06-13T21:16:24.113Z,11.27
2023-06-13T21:18:54.861Z,12.35
2023-06-13T21:21:25.214Z,13.20
2023-06-13T21:23:56.048Z,15.60
2023-06-13T21:26:26.280Z,12.55
2023-06-13T21:28:56.885Z,11.90
2023-06-13T21:31:27.596Z,21.33
2023-06-13T21:33:59.166Z,20.50
2023-06-13T21:36:29.921Z,14.27
2023-06-13T21:39:00.660Z,15.65
2023-06-13T21:41:30.962Z,16.60
2023-06-13T21:44:01.644Z,16.70
2023-06-13T21:46:32.055Z,20.83
2023-06-13T21:49:02.684Z,18.13
2023-06-13T21:51:34.033Z,27.60
2023-06-13T21:54:05.493Z,28.70
2023-06-13T21:56:35.698Z,28.52
2023-06-13T21:59:06.360Z,49.53
2023-06-13T22:01:36.845Z,28.77
2023-06-13T22:04:07.658Z,35.85
2023-06-13T22:06:41.523Z,23.25
2023-06-13T22:09:13.242Z,26.00
2023-06-13T22:11:46.694Z,25.08
2023-06-13T22:14:17.686Z,20.65
2023-06-13T22:16:54.056Z,23.52
2023-06-13T22:19:26.043Z,21.75
2023-06-13T22:21:56.579Z,21.92
2023-06-13T22:24:27.869Z,20.85
2023-06-13T22:26:58.336Z,22.73
2023-06-13T22:29:29.038Z,19.85
2023-06-13T22:31:59.330Z,17.90
2023-06-13T22:34:30.000Z,19.88
2023-06-13T22:37:00.163Z,20.02
2023-06-13T22:39:30.756Z,20.08
2023-06-13T22:42:01.612Z,18.90
2023-06-13T22:44:32.505Z,18.50
2023-06-13T22:47:02.816Z,19.98
2023-06-13T22:49:33.636Z,18.95
2023-06-13T22:52:05.896Z,19.40
2023-06-13T22:54:40.328Z,30.30
2023-06-13T22:57:10.559Z,19.15
2023-06-13T22:59:41.324Z,16.67
2023-06-13T23:02:11.788Z,16.52
2023-06-13T23:04:43.097Z,16.10
2023-06-13T23:07:13.239Z,16.65
2023-06-13T23:09:43.925Z,16.55
2023-06-13T23:12:14.160Z,14.18
2023-06-13T23:14:44.905Z,14.57
2023-06-13T23:17:16.888Z,12.40
2023-06-13T23:19:55.556Z,22.05
2023-06-13T23:22:30.413Z,19.65
2023-06-13T23:25:01.530Z,22.88
2023-06-13T23:27:34.207Z,16.88
2023-06-13T23:30:07.015Z,15.60
2023-06-13T23:32:39.694Z,16.70
2023-06-13T23:35:14.959Z,14.90
2023-06-13T23:37:45.351Z,12.00
2023-06-13T23:40:17.549Z,11.43
2023-06-13T23:42:47.870Z,13.68
2023-06-13T23:45:18.574Z,12.23
2023-06-13T23:47:48.761Z,14.93
2023-06-13T23:50:20.141Z,15.25
2023-06-13T23:52:50.411Z,12.65
2023-06-13T23:55:21.195Z,15.00
2023-06-13T23:57:51.645Z,9.13
